sensor_id;sensor_type;location;lat;lon;timestamp;P1;durP1;ratioP1;P2;durP2;ratioP2
73089;SDS011;61269;49.450;8.610;2023-04-30T00:01:11;6.40;;;2.88;;
73089;SDS011;61269;49.450;8.610;2023-04-30T00:03:39;7.30;;;2.87;;
73089;SDS011;61269;49.450;8.610;2023-04-30T00:06:08;5.82;;;2.92;;
73089;SDS011;61269;49.450;8.610;2023-04-30T00:08:36;6.90;;;2.67;;
73089;SDS011;61269;49.450;8.610;2023-04-30T00:11:04;5.35;;;2.55;;
73089;SDS011;61269;49.450;8.610;2023-04-30T00:13:34;8.30;;;3.42;;
73089;SDS011;61269;49.450;8.610;2023-04-30T00:16:02;7.37;;;2.83;;
73089;SDS011;61269;49.450;8.610;2023-04-30T00:18:31;7.45;;;3.60;;
73089;SDS011;61269;49.450;8.610;2023-04-30T00:20:59;5.53;;;2.60;;
73089;SDS011;61269;49.450;8.610;2023-04-30T00:23:27;6.65;;;2.75;;
73089;SDS011;61269;49.450;8.610;2023-04-30T00:25:55;8.30;;;2.85;;
73089;SDS011;61269;49.450;8.610;2023-04-30T00:28:23;7.33;;;2.63;;
73089;SDS011;61269;49.450;8.610;2023-04-30T00:30:53;6.72;;;2.70;;
73089;SDS011;61269;49.450;8.610;2023-04-30T00:33:21;6.47;;;2.85;;
73089;SDS011;61269;49.450;8.610;2023-04-30T00:35:49;5.50;;;2.58;;
73089;SDS011;61269;49.450;8.610;2023-04-30T00:38:17;5.45;;;2.45;;
73089;SDS011;61269;49.450;8.610;2023-04-30T00:40:46;7.13;;;2.60;;
73089;SDS011;61269;49.450;8.610;2023-04-30T00:43:14;5.28;;;2.65;;
73089;SDS011;61269;49.450;8.610;2023-04-30T00:45:42;6.22;;;2.58;;
73089;SDS011;61269;49.450;8.610;2023-04-30T00:48:12;7.38;;;2.40;;
73089;SDS011;61269;49.450;8.610;2023-04-30T00:50:40;6.97;;;2.90;;
73089;SDS011;61269;49.450;8.610;2023-04-30T00:53:10;6.70;;;2.53;;
73089;SDS011;61269;49.450;8.610;2023-04-30T00:55:40;6.22;;;2.55;;
73089;SDS011;61269;49.450;8.610;2023-04-30T00:58:08;5.03;;;2.30;;
73089;SDS011;61269;49.450;8.610;2023-04-30T01:00:37;6.43;;;2.88;;
73089;SDS011;61269;49.450;8.610;2023-04-30T01:03:05;7.43;;;2.65;;
73089;SDS011;61269;49.450;8.610;2023-04-30T01:05:34;5.43;;;2.60;;
73089;SDS011;61269;49.450;8.610;2023-04-30T01:08:03;7.80;;;2.72;;
73089;SDS011;61269;49.450;8.610;2023-04-30T01:10:34;6.10;;;2.70;;
73089;SDS011;61269;49.450;8.610;2023-04-30T01:13:05;5.50;;;2.60;;
73089;SDS011;61269;49.450;8.610;2023-04-30T01:15:37;6.40;;;2.83;;
73089;SDS011;61269;49.450;8.610;2023-04-30T01:18:12;6.73;;;2.40;;
73089;SDS011;61269;49.450;8.610;2023-04-30T01:20:46;6.22;;;2.42;;
73089;SDS011;61269;49.450;8.610;2023-04-30T01:23:17;5.35;;;2.42;;
73089;SDS011;61269;49.450;8.610;2023-04-30T01:25:52;5.60;;;2.60;;
73089;SDS011;61269;49.450;8.610;2023-04-30T01:28:32;5.88;;;2.60;;
73089;SDS011;61269;49.450;8.610;2023-04-30T01:31:02;5.07;;;2.47;;
73089;SDS011;61269;49.450;8.610;2023-04-30T01:33:30;5.72;;;2.47;;
73089;SDS011;61269;49.450;8.610;2023-04-30T01:36:06;5.57;;;2.60;;
73089;SDS011;61269;49.450;8.610;2023-04-30T01:38:47;5.82;;;2.63;;
73089;SDS011;61269;49.450;8.610;2023-04-30T01:41:25;6.47;;;2.58;;
73089;SDS011;61269;49.450;8.610;2023-04-30T01:44:00;7.07;;;3.00;;
73089;SDS011;61269;49.450;8.610;2023-04-30T01:46:37;6.88;;;3.03;;
73089;SDS011;61269;49.450;8.610;2023-04-30T01:49:07;6.78;;;3.25;;
73089;SDS011;61269;49.450;8.610;2023-04-30T01:51:39;5.70;;;2.78;;
73089;SDS011;61269;49.450;8.610;2023-04-30T01:56:56;6.70;;;2.90;;
73089;SDS011;61269;49.450;8.610;2023-04-30T01:59:31;7.70;;;3.10;;
73089;SDS011;61269;49.450;8.610;2023-04-30T02:02:01;7.10;;;2.90;;
73089;SDS011;61269;49.450;8.610;2023-04-30T02:04:30;6.30;;;2.92;;
73089;SDS011;61269;49.450;8.610;2023-04-30T02:06:58;6.90;;;2.78;;
73089;SDS011;61269;49.450;8.610;2023-04-30T02:09:26;6.50;;;3.00;;
73089;SDS011;61269;49.450;8.610;2023-04-30T02:11:55;6.72;;;2.92;;
73089;SDS011;61269;49.450;8.610;2023-04-30T02:14:25;5.85;;;2.65;;
73089;SDS011;61269;49.450;8.610;2023-04-30T02:16:55;8.50;;;3.17;;
73089;SDS011;61269;49.450;8.610;2023-04-30T02:19:23;8.05;;;3.33;;
73089;SDS011;61269;49.450;8.610;2023-04-30T02:21:52;6.13;;;3.13;;
73089;SDS011;61269;49.450;8.610;2023-04-30T02:24:20;6.82;;;2.72;;
73089;SDS011;61269;49.450;8.610;2023-04-30T02:26:48;6.90;;;3.25;;
73089;SDS011;61269;49.450;8.610;2023-04-30T02:29:17;6.93;;;3.53;;
73089;SDS011;61269;49.450;8.610;2023-04-30T02:31:45;7.05;;;3.47;;
73089;SDS011;61269;49.450;8.610;2023-04-30T02:34:14;6.60;;;3.00;;
73089;SDS011;61269;49.450;8.610;2023-04-30T02:36:43;7.88;;;3.63;;
73089;SDS011;61269;49.450;8.610;2023-04-30T02:39:11;7.05;;;3.38;;
73089;SDS011;61269;49.450;8.610;2023-04-30T02:41:39;7.78;;;3.05;;
73089;SDS011;61269;49.450;8.610;2023-04-30T02:44:07;6.55;;;3.40;;
73089;SDS011;61269;49.450;8.610;2023-04-30T02:46:35;7.40;;;3.27;;
73089;SDS011;61269;49.450;8.610;2023-04-30T02:49:03;6.85;;;3.22;;
73089;SDS011;61269;49.450;8.610;2023-04-30T02:51:33;6.90;;;3.10;;
73089;SDS011;61269;49.450;8.610;2023-04-30T02:54:01;6.85;;;2.80;;
73089;SDS011;61269;49.450;8.610;2023-04-30T02:56:30;5.93;;;3.00;;
73089;SDS011;61269;49.450;8.610;2023-04-30T02:58:58;7.17;;;3.07;;
73089;SDS011;61269;49.450;8.610;2023-04-30T03:01:26;7.07;;;3.00;;
73089;SDS011;61269;49.450;8.610;2023-04-30T03:03:54;6.95;;;3.10;;
73089;SDS011;61269;49.450;8.610;2023-04-30T03:06:24;7.95;;;3.00;;
73089;SDS011;61269;49.450;8.610;2023-04-30T03:08:54;6.38;;;2.85;;
73089;SDS011;61269;49.450;8.610;2023-04-30T03:11:22;9.23;;;3.20;;
73089;SDS011;61269;49.450;8.610;2023-04-30T03:13:50;6.50;;;2.83;;
73089;SDS011;61269;49.450;8.610;2023-04-30T03:16:19;6.82;;;3.17;;
73089;SDS011;61269;49.450;8.610;2023-04-30T03:18:48;6.30;;;3.08;;
73089;SDS011;61269;49.450;8.610;2023-04-30T03:21:17;6.22;;;2.90;;
73089;SDS011;61269;49.450;8.610;2023-04-30T03:23:45;6.27;;;2.63;;
73089;SDS011;61269;49.450;8.610;2023-04-30T03:26:14;7.60;;;3.33;;
73089;SDS011;61269;49.450;8.610;2023-04-30T03:28:42;6.53;;;2.80;;
73089;SDS011;61269;49.450;8.610;2023-04-30T03:31:11;7.47;;;3.28;;
73089;SDS011;61269;49.450;8.610;2023-04-30T03:33:39;8.50;;;3.75;;
73089;SDS011;61269;49.450;8.610;2023-04-30T03:36:07;7.33;;;3.60;;
73089;SDS011;61269;49.450;8.610;2023-04-30T03:38:35;8.25;;;3.33;;
73089;SDS011;61269;49.450;8.610;2023-04-30T03:41:03;7.13;;;3.28;;
73089;SDS011;61269;49.450;8.610;2023-04-30T03:43:33;8.52;;;3.00;;
73089;SDS011;61269;49.450;8.610;2023-04-30T03:46:01;7.40;;;3.55;;
73089;SDS011;61269;49.450;8.610;2023-04-30T03:48:30;8.90;;;3.50;;
73089;SDS011;61269;49.450;8.610;2023-04-30T03:50:58;7.93;;;3.70;;
73089;SDS011;61269;49.450;8.610;2023-04-30T03:53:26;7.53;;;3.80;;
73089;SDS011;61269;49.450;8.610;2023-04-30T03:55:54;7.43;;;3.55;;
73089;SDS011;61269;49.450;8.610;2023-04-30T03:58:23;7.32;;;3.30;;
73089;SDS011;61269;49.450;8.610;2023-04-30T04:00:53;7.60;;;3.70;;
73089;SDS011;61269;49.450;8.610;2023-04-30T04:03:21;7.28;;;3.55;;
73089;SDS011;61269;49.450;8.610;2023-04-30T04:05:49;8.23;;;3.50;;
73089;SDS011;61269;49.450;8.610;2023-04-30T04:08:18;6.75;;;3.20;;
73089;SDS011;61269;49.450;8.610;2023-04-30T04:10:46;7.20;;;3.40;;
73089;SDS011;61269;49.450;8.610;2023-04-30T04:13:14;7.57;;;3.27;;
73089;SDS011;61269;49.450;8.610;2023-04-30T04:15:43;7.82;;;3.92;;
73089;SDS011;61269;49.450;8.610;2023-04-30T04:18:12;7.07;;;3.45;;
73089;SDS011;61269;49.450;8.610;2023-04-30T04:20:41;12.07;;;3.50;;
73089;SDS011;61269;49.450;8.610;2023-04-30T04:23:09;7.10;;;3.38;;
73089;SDS011;61269;49.450;8.610;2023-04-30T04:25:37;7.70;;;3.33;;
73089;SDS011;61269;49.450;8.610;2023-04-30T04:28:07;7.55;;;2.97;;
73089;SDS011;61269;49.450;8.610;2023-04-30T04:30:35;6.72;;;3.50;;
73089;SDS011;61269;49.450;8.610;2023-04-30T04:33:03;7.45;;;3.50;;
73089;SDS011;61269;49.450;8.610;2023-04-30T04:35:35;8.45;;;3.85;;
73089;SDS011;61269;49.450;8.610;2023-04-30T04:38:04;7.57;;;3.47;;
73089;SDS011;61269;49.450;8.610;2023-04-30T04:40:32;8.05;;;3.53;;
73089;SDS011;61269;49.450;8.610;2023-04-30T04:43:01;7.65;;;3.55;;
73089;SDS011;61269;49.450;8.610;2023-04-30T04:45:30;8.10;;;3.90;;
73089;SDS011;61269;49.450;8.610;2023-04-30T04:47:59;7.05;;;3.58;;
73089;SDS011;61269;49.450;8.610;2023-04-30T04:50:27;6.90;;;3.60;;
73089;SDS011;61269;49.450;8.610;2023-04-30T04:52:57;7.15;;;3.65;;
73089;SDS011;61269;49.450;8.610;2023-04-30T04:55:25;8.90;;;4.50;;
73089;SDS011;61269;49.450;8.610;2023-04-30T04:57:53;7.55;;;3.53;;
73089;SDS011;61269;49.450;8.610;2023-04-30T05:00:22;6.32;;;3.53;;
73089;SDS011;61269;49.450;8.610;2023-04-30T05:02:51;6.70;;;3.33;;
73089;SDS011;61269;49.450;8.610;2023-04-30T05:05:20;6.82;;;3.28;;
73089;SDS011;61269;49.450;8.610;2023-04-30T05:07:48;7.45;;;3.50;;
73089;SDS011;61269;49.450;8.610;2023-04-30T05:10:19;6.38;;;3.03;;
73089;SDS011;61269;49.450;8.610;2023-04-30T05:12:48;7.75;;;4.00;;
73089;SDS011;61269;49.450;8.610;2023-04-30T05:15:16;6.83;;;3.20;;
73089;SDS011;61269;49.450;8.610;2023-04-30T05:17:44;8.77;;;3.88;;
73089;SDS011;61269;49.450;8.610;2023-04-30T05:20:13;8.13;;;3.70;;
73089;SDS011;61269;49.450;8.610;2023-04-30T05:22:41;9.77;;;3.80;;
73089;SDS011;61269;49.450;8.610;2023-04-30T05:25:09;8.45;;;3.88;;
73089;SDS011;61269;49.450;8.610;2023-04-30T05:27:39;6.50;;;3.20;;
73089;SDS011;61269;49.450;8.610;2023-04-30T05:30:07;5.95;;;3.03;;
73089;SDS011;61269;49.450;8.610;2023-04-30T05:32:36;7.75;;;3.83;;
73089;SDS011;61269;49.450;8.610;2023-04-30T05:35:05;8.95;;;3.78;;
73089;SDS011;61269;49.450;8.610;2023-04-30T05:37:33;7.05;;;3.33;;
73089;SDS011;61269;49.450;8.610;2023-04-30T05:40:02;8.03;;;3.47;;
73089;SDS011;61269;49.450;8.610;2023-04-30T05:42:31;8.38;;;3.72;;
73089;SDS011;61269;49.450;8.610;2023-04-30T05:45:01;6.75;;;3.47;;
73089;SDS011;61269;49.450;8.610;2023-04-30T05:47:30;8.05;;;3.42;;
73089;SDS011;61269;49.450;8.610;2023-04-30T05:49:58;8.85;;;3.75;;
73089;SDS011;61269;49.450;8.610;2023-04-30T05:52:26;6.77;;;3.37;;
73089;SDS011;61269;49.450;8.610;2023-04-30T05:54:54;6.78;;;2.97;;
73089;SDS011;61269;49.450;8.610;2023-04-30T05:57:22;9.93;;;3.83;;
73089;SDS011;61269;49.450;8.610;2023-04-30T05:59:50;9.68;;;3.83;;
73089;SDS011;61269;49.450;8.610;2023-04-30T06:02:20;7.85;;;3.80;;
73089;SDS011;61269;49.450;8.610;2023-04-30T06:04:49;6.83;;;3.83;;
73089;SDS011;61269;49.450;8.610;2023-04-30T06:07:17;7.72;;;3.72;;
73089;SDS011;61269;49.450;8.610;2023-04-30T06:09:45;8.95;;;3.90;;
73089;SDS011;61269;49.450;8.610;2023-04-30T06:12:13;8.82;;;3.40;;
73089;SDS011;61269;49.450;8.610;2023-04-30T06:14:42;6.97;;;3.33;;
73089;SDS011;61269;49.450;8.610;2023-04-30T06:17:11;7.47;;;3.07;;
73089;SDS011;61269;49.450;8.610;2023-04-30T06:19:41;8.05;;;3.28;;
73089;SDS011;61269;49.450;8.610;2023-04-30T06:22:09;6.43;;;3.20;;
73089;SDS011;61269;49.450;8.610;2023-04-30T06:24:37;6.90;;;3.33;;
73089;SDS011;61269;49.450;8.610;2023-04-30T06:27:05;7.00;;;3.15;;
73089;SDS011;61269;49.450;8.610;2023-04-30T06:29:33;7.43;;;3.30;;
73089;SDS011;61269;49.450;8.610;2023-04-30T06:32:01;6.68;;;3.25;;
73089;SDS011;61269;49.450;8.610;2023-04-30T06:34:33;6.35;;;3.15;;
73089;SDS011;61269;49.450;8.610;2023-04-30T06:37:02;8.18;;;3.30;;
73089;SDS011;61269;49.450;8.610;2023-04-30T06:39:30;7.60;;;3.53;;
73089;SDS011;61269;49.450;8.610;2023-04-30T06:41:58;8.57;;;3.10;;
73089;SDS011;61269;49.450;8.610;2023-04-30T06:44:27;6.03;;;2.83;;
73089;SDS011;61269;49.450;8.610;2023-04-30T06:46:57;7.38;;;3.40;;
73089;SDS011;61269;49.450;8.610;2023-04-30T06:49:25;7.57;;;2.90;;
73089;SDS011;61269;49.450;8.610;2023-04-30T06:51:53;5.47;;;2.50;;
73089;SDS011;61269;49.450;8.610;2023-04-30T06:54:23;8.13;;;2.63;;
73089;SDS011;61269;49.450;8.610;2023-04-30T06:56:52;5.85;;;2.72;;
73089;SDS011;61269;49.450;8.610;2023-04-30T06:59:20;6.93;;;3.03;;
73089;SDS011;61269;49.450;8.610;2023-04-30T07:01:48;5.95;;;2.92;;
73089;SDS011;61269;49.450;8.610;2023-04-30T07:04:17;8.50;;;3.17;;
73089;SDS011;61269;49.450;8.610;2023-04-30T07:06:45;6.27;;;3.03;;
73089;SDS011;61269;49.450;8.610;2023-04-30T07:09:13;7.10;;;2.90;;
73089;SDS011;61269;49.450;8.610;2023-04-30T07:11:43;6.22;;;3.05;;
73089;SDS011;61269;49.450;8.610;2023-04-30T07:14:12;5.10;;;2.50;;
73089;SDS011;61269;49.450;8.610;2023-04-30T07:16:39;6.10;;;2.60;;
73089;SDS011;61269;49.450;8.610;2023-04-30T07:19:08;5.80;;;2.60;;
73089;SDS011;61269;49.450;8.610;2023-04-30T07:21:36;6.55;;;2.70;;
73089;SDS011;61269;49.450;8.610;2023-04-30T07:24:04;5.20;;;2.47;;
73089;SDS011;61269;49.450;8.610;2023-04-30T07:26:32;5.95;;;2.58;;
73089;SDS011;61269;49.450;8.610;2023-04-30T07:29:03;5.50;;;2.53;;
73089;SDS011;61269;49.450;8.610;2023-04-30T07:31:31;5.20;;;2.53;;
73089;SDS011;61269;49.450;8.610;2023-04-30T07:34:00;7.43;;;2.40;;
73089;SDS011;61269;49.450;8.610;2023-04-30T07:36:28;5.95;;;2.50;;
73089;SDS011;61269;49.450;8.610;2023-04-30T07:38:56;5.57;;;2.70;;
73089;SDS011;61269;49.450;8.610;2023-04-30T07:41:24;5.85;;;3.03;;
73089;SDS011;61269;49.450;8.610;2023-04-30T07:43:53;5.40;;;2.40;;
73089;SDS011;61269;49.450;8.610;2023-04-30T07:46:22;5.50;;;2.65;;
73089;SDS011;61269;49.450;8.610;2023-04-30T07:48:51;5.95;;;2.08;;
73089;SDS011;61269;49.450;8.610;2023-04-30T07:51:19;6.05;;;2.50;;
73089;SDS011;61269;49.450;8.610;2023-04-30T07:53:48;4.45;;;2.30;;
73089;SDS011;61269;49.450;8.610;2023-04-30T07:56:18;4.90;;;2.17;;
73089;SDS011;61269;49.450;8.610;2023-04-30T07:58:47;4.40;;;2.00;;
73089;SDS011;61269;49.450;8.610;2023-04-30T08:01:15;6.03;;;2.78;;
73089;SDS011;61269;49.450;8.610;2023-04-30T08:03:45;6.30;;;2.72;;
73089;SDS011;61269;49.450;8.610;2023-04-30T08:06:13;5.80;;;2.35;;
73089;SDS011;61269;49.450;8.610;2023-04-30T08:08:41;5.13;;;2.43;;
73089;SDS011;61269;49.450;8.610;2023-04-30T08:11:09;6.10;;;2.13;;
73089;SDS011;61269;49.450;8.610;2023-04-30T08:13:38;4.18;;;2.03;;
73089;SDS011;61269;49.450;8.610;2023-04-30T08:16:07;5.15;;;2.45;;
73089;SDS011;61269;49.450;8.610;2023-04-30T08:18:35;5.20;;;2.10;;
73089;SDS011;61269;49.450;8.610;2023-04-30T08:21:05;6.40;;;2.10;;
73089;SDS011;61269;49.450;8.610;2023-04-30T08:23:37;4.82;;;1.80;;
73089;SDS011;61269;49.450;8.610;2023-04-30T08:26:05;4.78;;;1.77;;
73089;SDS011;61269;49.450;8.610;2023-04-30T08:28:33;6.07;;;1.75;;
73089;SDS011;61269;49.450;8.610;2023-04-30T08:31:02;4.28;;;2.00;;
73089;SDS011;61269;49.450;8.610;2023-04-30T08:33:30;3.47;;;1.50;;
73089;SDS011;61269;49.450;8.610;2023-04-30T08:35:58;3.78;;;1.70;;
73089;SDS011;61269;49.450;8.610;2023-04-30T08:38:28;3.67;;;1.58;;
73089;SDS011;61269;49.450;8.610;2023-04-30T08:41:04;3.15;;;1.48;;
73089;SDS011;61269;49.450;8.610;2023-04-30T08:43:34;3.70;;;1.38;;
73089;SDS011;61269;49.450;8.610;2023-04-30T08:46:02;3.87;;;1.57;;
73089;SDS011;61269;49.450;8.610;2023-04-30T08:48:31;3.83;;;1.48;;
73089;SDS011;61269;49.450;8.610;2023-04-30T08:50:59;3.15;;;1.33;;
73089;SDS011;61269;49.450;8.610;2023-04-30T08:53:29;4.57;;;1.50;;
73089;SDS011;61269;49.450;8.610;2023-04-30T08:55:58;3.83;;;1.70;;
73089;SDS011;61269;49.450;8.610;2023-04-30T08:58:26;4.77;;;2.00;;
73089;SDS011;61269;49.450;8.610;2023-04-30T09:00:56;4.05;;;1.73;;
73089;SDS011;61269;49.450;8.610;2023-04-30T09:03:24;3.78;;;1.60;;
73089;SDS011;61269;49.450;8.610;2023-04-30T09:05:54;3.67;;;1.75;;
73089;SDS011;61269;49.450;8.610;2023-04-30T09:11:20;3.00;;;1.40;;
73089;SDS011;61269;49.450;8.610;2023-04-30T09:13:50;5.90;;;1.73;;
73089;SDS011;61269;49.450;8.610;2023-04-30T09:16:19;4.70;;;1.80;;
73089;SDS011;61269;49.450;8.610;2023-04-30T09:18:49;5.00;;;1.30;;
73089;SDS011;61269;49.450;8.610;2023-04-30T09:21:27;3.03;;;1.23;;
73089;SDS011;61269;49.450;8.610;2023-04-30T09:23:59;2.47;;;1.07;;
73089;SDS011;61269;49.450;8.610;2023-04-30T09:26:32;3.03;;;1.45;;
73089;SDS011;61269;49.450;8.610;2023-04-30T09:29:01;2.45;;;1.30;;
73089;SDS011;61269;49.450;8.610;2023-04-30T09:31:33;3.10;;;1.23;;
73089;SDS011;61269;49.450;8.610;2023-04-30T09:34:03;3.30;;;1.48;;
73089;SDS011;61269;49.450;8.610;2023-04-30T09:36:31;2.73;;;1.10;;
73089;SDS011;61269;49.450;8.610;2023-04-30T09:39:06;3.17;;;1.33;;
73089;SDS011;61269;49.450;8.610;2023-04-30T09:41:41;2.22;;;1.05;;
73089;SDS011;61269;49.450;8.610;2023-04-30T09:46:52;2.72;;;1.30;;
73089;SDS011;61269;49.450;8.610;2023-04-30T09:49:22;3.23;;;1.30;;
73089;SDS011;61269;49.450;8.610;2023-04-30T09:51:55;2.85;;;1.35;;
73089;SDS011;61269;49.450;8.610;2023-04-30T09:54:26;5.60;;;1.75;;
73089;SDS011;61269;49.450;8.610;2023-04-30T09:56:55;3.78;;;1.25;;
73089;SDS011;61269;49.450;8.610;2023-04-30T09:59:27;5.10;;;1.70;;
73089;SDS011;61269;49.450;8.610;2023-04-30T10:01:57;2.40;;;1.20;;
73089;SDS011;61269;49.450;8.610;2023-04-30T10:04:28;5.05;;;1.73;;
73089;SDS011;61269;49.450;8.610;2023-04-30T10:06:57;6.45;;;1.70;;
73089;SDS011;61269;49.450;8.610;2023-04-30T10:09:29;4.25;;;1.38;;
73089;SDS011;61269;49.450;8.610;2023-04-30T10:12:04;3.80;;;1.45;;
73089;SDS011;61269;49.450;8.610;2023-04-30T10:14:36;3.10;;;1.00;;
73089;SDS011;61269;49.450;8.610;2023-04-30T10:17:05;3.97;;;1.77;;
73089;SDS011;61269;49.450;8.610;2023-04-30T10:19:37;3.78;;;1.27;;
73089;SDS011;61269;49.450;8.610;2023-04-30T10:22:07;2.50;;;1.13;;
73089;SDS011;61269;49.450;8.610;2023-04-30T10:24:37;3.10;;;1.33;;
73089;SDS011;61269;49.450;8.610;2023-04-30T10:27:06;3.57;;;1.47;;
73089;SDS011;61269;49.450;8.610;2023-04-30T10:29:34;3.85;;;1.60;;
73089;SDS011;61269;49.450;8.610;2023-04-30T10:32:02;3.90;;;1.48;;
73089;SDS011;61269;49.450;8.610;2023-04-30T10:34:34;3.17;;;1.40;;
73089;SDS011;61269;49.450;8.610;2023-04-30T10:37:12;5.95;;;1.20;;
73089;SDS011;61269;49.450;8.610;2023-04-30T10:39:46;3.70;;;1.73;;
73089;SDS011;61269;49.450;8.610;2023-04-30T10:42:14;3.03;;;1.23;;
73089;SDS011;61269;49.450;8.610;2023-04-30T10:44:43;3.38;;;1.30;;
73089;SDS011;61269;49.450;8.610;2023-04-30T10:47:11;3.20;;;1.58;;
73089;SDS011;61269;49.450;8.610;2023-04-30T10:49:39;3.38;;;1.33;;
73089;SDS011;61269;49.450;8.610;2023-04-30T10:52:13;2.63;;;1.20;;
73089;SDS011;61269;49.450;8.610;2023-04-30T10:54:54;2.58;;;1.25;;
73089;SDS011;61269;49.450;8.610;2023-04-30T10:57:22;2.85;;;1.30;;
73089;SDS011;61269;49.450;8.610;2023-04-30T10:59:51;3.40;;;1.08;;
73089;SDS011;61269;49.450;8.610;2023-04-30T11:02:20;3.35;;;1.30;;
73089;SDS011;61269;49.450;8.610;2023-04-30T11:05:07;2.43;;;1.00;;
73089;SDS011;61269;49.450;8.610;2023-04-30T11:07:41;2.42;;;1.15;;
73089;SDS011;61269;49.450;8.610;2023-04-30T11:10:18;2.95;;;1.27;;
73089;SDS011;61269;49.450;8.610;2023-04-30T11:12:49;4.57;;;1.67;;
73089;SDS011;61269;49.450;8.610;2023-04-30T11:15:18;4.15;;;1.42;;
73089;SDS011;61269;49.450;8.610;2023-04-30T11:17:48;4.53;;;1.70;;
73089;SDS011;61269;49.450;8.610;2023-04-30T11:20:19;5.05;;;1.80;;
73089;SDS011;61269;49.450;8.610;2023-04-30T11:22:48;3.63;;;1.50;;
73089;SDS011;61269;49.450;8.610;2023-04-30T11:25:40;3.55;;;1.20;;
73089;SDS011;61269;49.450;8.610;2023-04-30T11:28:12;2.97;;;1.30;;
73089;SDS011;61269;49.450;8.610;2023-04-30T11:30:46;4.17;;;1.30;;
73089;SDS011;61269;49.450;8.610;2023-04-30T11:33:17;3.58;;;1.20;;
73089;SDS011;61269;49.450;8.610;2023-04-30T11:35:46;3.55;;;1.30;;
73089;SDS011;61269;49.450;8.610;2023-04-30T11:38:18;4.93;;;1.40;;
73089;SDS011;61269;49.450;8.610;2023-04-30T11:40:50;2.63;;;1.20;;
73089;SDS011;61269;49.450;8.610;2023-04-30T11:43:20;2.37;;;1.20;;
73089;SDS011;61269;49.450;8.610;2023-04-30T11:46:08;2.20;;;1.13;;
73089;SDS011;61269;49.450;8.610;2023-04-30T11:48:37;3.15;;;1.35;;
73089;SDS011;61269;49.450;8.610;2023-04-30T11:51:13;3.28;;;1.10;;
73089;SDS011;61269;49.450;8.610;2023-04-30T11:53:44;3.17;;;1.00;;
73089;SDS011;61269;49.450;8.610;2023-04-30T11:56:14;3.03;;;1.40;;
73089;SDS011;61269;49.450;8.610;2023-04-30T11:58:51;2.60;;;1.13;;
73089;SDS011;61269;49.450;8.610;2023-04-30T12:01:21;4.18;;;1.38;;
73089;SDS011;61269;49.450;8.610;2023-04-30T12:03:54;51.63;;;21.80;;
73089;SDS011;61269;49.450;8.610;2023-04-30T12:06:25;32.97;;;13.63;;
73089;SDS011;61269;49.450;8.610;2023-04-30T12:08:54;28.63;;;12.35;;
73089;SDS011;61269;49.450;8.610;2023-04-30T12:11:24;46.53;;;21.37;;
73089;SDS011;61269;49.450;8.610;2023-04-30T12:13:54;72.85;;;31.92;;
73089;SDS011;61269;49.450;8.610;2023-04-30T12:16:24;40.50;;;18.73;;
73089;SDS011;61269;49.450;8.610;2023-04-30T12:18:52;20.33;;;7.88;;
73089;SDS011;61269;49.450;8.610;2023-04-30T12:21:21;16.23;;;6.75;;
73089;SDS011;61269;49.450;8.610;2023-04-30T12:23:49;9.23;;;3.77;;
73089;SDS011;61269;49.450;8.610;2023-04-30T12:26:17;15.57;;;4.50;;
73089;SDS011;61269;49.450;8.610;2023-04-30T12:28:46;4.50;;;1.75;;
73089;SDS011;61269;49.450;8.610;2023-04-30T12:31:17;2.58;;;1.05;;
73089;SDS011;61269;49.450;8.610;2023-04-30T12:33:54;2.58;;;1.00;;
73089;SDS011;61269;49.450;8.610;2023-04-30T12:36:29;2.57;;;0.87;;
73089;SDS011;61269;49.450;8.610;2023-04-30T12:39:02;2.10;;;1.13;;
73089;SDS011;61269;49.450;8.610;2023-04-30T12:41:38;2.97;;;1.13;;
73089;SDS011;61269;49.450;8.610;2023-04-30T12:44:17;2.50;;;0.90;;
73089;SDS011;61269;49.450;8.610;2023-04-30T12:46:48;2.47;;;0.90;;
73089;SDS011;61269;49.450;8.610;2023-04-30T12:49:22;2.50;;;1.00;;
73089;SDS011;61269;49.450;8.610;2023-04-30T12:51:56;2.00;;;0.75;;
73089;SDS011;61269;49.450;8.610;2023-04-30T12:54:26;4.05;;;1.17;;
73089;SDS011;61269;49.450;8.610;2023-04-30T12:56:59;2.85;;;0.90;;
73089;SDS011;61269;49.450;8.610;2023-04-30T12:59:29;2.55;;;0.80;;
73089;SDS011;61269;49.450;8.610;2023-04-30T13:02:06;2.93;;;1.03;;
73089;SDS011;61269;49.450;8.610;2023-04-30T13:04:36;1.42;;;0.60;;
73089;SDS011;61269;49.450;8.610;2023-04-30T13:07:04;2.92;;;1.10;;
73089;SDS011;61269;49.450;8.610;2023-04-30T13:09:33;3.38;;;0.95;;
73089;SDS011;61269;49.450;8.610;2023-04-30T13:12:02;2.00;;;0.80;;
73089;SDS011;61269;49.450;8.610;2023-04-30T13:14:32;2.00;;;0.80;;
73089;SDS011;61269;49.450;8.610;2023-04-30T13:17:00;2.13;;;1.17;;
73089;SDS011;61269;49.450;8.610;2023-04-30T13:19:32;3.08;;;1.08;;
73089;SDS011;61269;49.450;8.610;2023-04-30T13:22:01;2.95;;;0.73;;
73089;SDS011;61269;49.450;8.610;2023-04-30T13:24:29;2.15;;;0.80;;
73089;SDS011;61269;49.450;8.610;2023-04-30T13:26:57;2.87;;;1.00;;
73089;SDS011;61269;49.450;8.610;2023-04-30T13:29:25;3.10;;;0.50;;
73089;SDS011;61269;49.450;8.610;2023-04-30T13:31:54;2.88;;;0.88;;
73089;SDS011;61269;49.450;8.610;2023-04-30T13:34:22;1.65;;;0.68;;
73089;SDS011;61269;49.450;8.610;2023-04-30T13:36:52;2.53;;;1.05;;
73089;SDS011;61269;49.450;8.610;2023-04-30T13:39:20;3.17;;;0.80;;
73089;SDS011;61269;49.450;8.610;2023-04-30T13:41:49;2.13;;;0.82;;
73089;SDS011;61269;49.450;8.610;2023-04-30T13:44:17;2.95;;;1.15;;
73089;SDS011;61269;49.450;8.610;2023-04-30T13:46:45;2.30;;;0.90;;
73089;SDS011;61269;49.450;8.610;2023-04-30T13:49:13;1.77;;;0.90;;
73089;SDS011;61269;49.450;8.610;2023-04-30T13:51:42;6.77;;;2.60;;
73089;SDS011;61269;49.450;8.610;2023-04-30T13:54:11;15.43;;;7.07;;
73089;SDS011;61269;49.450;8.610;2023-04-30T13:56:39;19.17;;;7.60;;
73089;SDS011;61269;49.450;8.610;2023-04-30T13:59:08;12.20;;;6.13;;
73089;SDS011;61269;49.450;8.610;2023-04-30T14:01:36;3.63;;;1.20;;
73089;SDS011;61269;49.450;8.610;2023-04-30T14:04:04;3.37;;;0.90;;
73089;SDS011;61269;49.450;8.610;2023-04-30T14:06:34;2.58;;;1.00;;
73089;SDS011;61269;49.450;8.610;2023-04-30T14:09:02;1.75;;;0.73;;
73089;SDS011;61269;49.450;8.610;2023-04-30T14:11:32;2.03;;;0.88;;
73089;SDS011;61269;49.450;8.610;2023-04-30T14:14:00;1.98;;;0.70;;
73089;SDS011;61269;49.450;8.610;2023-04-30T14:16:29;2.60;;;0.90;;
73089;SDS011;61269;49.450;8.610;2023-04-30T14:18:57;2.63;;;0.98;;
73089;SDS011;61269;49.450;8.610;2023-04-30T14:21:25;2.63;;;1.00;;
73089;SDS011;61269;49.450;8.610;2023-04-30T14:23:54;1.95;;;0.70;;
73089;SDS011;61269;49.450;8.610;2023-04-30T14:26:22;1.80;;;0.80;;
73089;SDS011;61269;49.450;8.610;2023-04-30T14:28:51;1.70;;;0.90;;
73089;SDS011;61269;49.450;8.610;2023-04-30T14:31:20;2.08;;;0.50;;
73089;SDS011;61269;49.450;8.610;2023-04-30T14:33:48;2.10;;;0.68;;
73089;SDS011;61269;49.450;8.610;2023-04-30T14:36:16;1.55;;;0.80;;
73089;SDS011;61269;49.450;8.610;2023-04-30T14:38:44;2.47;;;0.82;;
73089;SDS011;61269;49.450;8.610;2023-04-30T14:41:12;3.30;;;0.80;;
73089;SDS011;61269;49.450;8.610;2023-04-30T14:43:40;1.60;;;0.70;;
73089;SDS011;61269;49.450;8.610;2023-04-30T14:46:10;1.83;;;0.70;;
73089;SDS011;61269;49.450;8.610;2023-04-30T14:48:38;2.40;;;0.55;;
73089;SDS011;61269;49.450;8.610;2023-04-30T14:51:06;1.92;;;0.60;;
73089;SDS011;61269;49.450;8.610;2023-04-30T14:53:35;1.83;;;0.93;;
73089;SDS011;61269;49.450;8.610;2023-04-30T14:56:04;1.98;;;0.80;;
73089;SDS011;61269;49.450;8.610;2023-04-30T14:58:32;2.15;;;0.63;;
73089;SDS011;61269;49.450;8.610;2023-04-30T15:01:01;51.63;;;23.20;;
73089;SDS011;61269;49.450;8.610;2023-04-30T15:03:30;43.05;;;21.92;;
73089;SDS011;61269;49.450;8.610;2023-04-30T15:05:59;12.80;;;5.73;;
73089;SDS011;61269;49.450;8.610;2023-04-30T15:08:27;36.00;;;18.92;;